Carnival Valor — H3VR — position and weather

sailwx.info

Track history (hours):
 
Tides and Currents Weather Stations Pressure Air Temp Water Temp Dewpoint Dewpoint Depression Visibility Wind Speed Wind Dir Waves Ship Positions

Carnival Valor

Last reported at 2019-Feb-22 02:40 UTC. Time now 2019-Feb-22 23:31 UTC.
Position N 21°50' W 089°58'.

Type: Ship. MMSI: 354298000.

Date/timePositionNaut miles runAvg speedWind from/ knotsBaromVisibWave heightAir tempDewpointWater temp
2019-Feb-22 02:40N 21°50' W 089°58'316.6
2019-Feb-22 02:31N 21°48' W 089°56'816.5
2019-Feb-22 02:00N 21°41' W 089°51'816.2
2019-Feb-22 01:30N 21°35' W 089°46'714.7
2019-Feb-22 01:01N 21°29' W 089°42'611.8
2019-Feb-22 00:31N 21°23' W 089°41'2 4.6
2019-Feb-21 23:59N 21°21' W 089°41'0 0.0
2019-Feb-21 23:29N 21°21' W 089°41'0 0.0
2019-Feb-21 22:59N 21°21' W 089°41'0 0.0
2019-Feb-21 22:28N 21°21' W 089°41'0 0.0
2019-Feb-21 21:58N 21°21' W 089°41'0 0.0
2019-Feb-21 21:28N 21°21' W 089°41'0 0.0
2019-Feb-21 20:58N 21°21' W 089°41'0 0.0
2019-Feb-21 20:30N 21°21' W 089°41'0 0.0
2019-Feb-21 20:00N 21°21' W 089°41'0 0.0
2019-Feb-21 19:30N 21°21' W 089°41'0 0.0
2019-Feb-21 19:00N 21°21' W 089°41'0 0.0
2019-Feb-21 18:26N 21°21' W 089°41'0 0.0
2019-Feb-21 17:59N 21°21' W 089°41'0 0.0
2019-Feb-21 17:29N 21°21' W 089°41'0 0.0
2019-Feb-21 16:59N 21°21' W 089°41'0 0.0
2019-Feb-21 16:29N 21°21' W 089°41'0 0.0
2019-Feb-21 15:58N 21°21' W 089°41'0 0.3
2019-Feb-21 15:31N 21°21' W 089°41'4 7.1
2019-Feb-21 15:00N 21°24' W 089°41'611.1
2019-Feb-21 14:31N 21°29' W 089°39'917.1
2019-Feb-21 14:00N 21°35' W 089°33'918.5
2019-Feb-21 13:30N 21°41' W 089°25'1018.5
2019-Feb-21 12:57N 21°45' W 089°15'14813.0
2019-Feb-21 01:35N 20°43' W 086°51'220.2
2019-Feb-21 01:29N 20°41' W 086°52'919.0
2019-Feb-21 01:00N 20°34' W 086°58'510.3
2019-Feb-21 00:30N 20°29' W 086°59'0 0.5
2019-Feb-21 00:00N 20°29' W 086°59'0 0.0
2019-Feb-20 23:30N 20°29' W 086°59'0 0.0
2019-Feb-20 23:00N 20°29' W 086°59'0 0.0
2019-Feb-20 22:29N 20°29' W 086°59'0 0.0
2019-Feb-20 21:59N 20°29' W 086°59'0 0.0
2019-Feb-20 21:26N 20°29' W 086°59'0 0.0
2019-Feb-20 20:59N 20°29' W 086°59'0 0.0
2019-Feb-20 20:29N 20°29' W 086°59'0 0.0
2019-Feb-20 19:58N 20°29' W 086°59'0 0.0
2019-Feb-20 19:28N 20°29' W 086°59'0 0.0
2019-Feb-20 18:58N 20°29' W 086°59'0 0.0
2019-Feb-20 18:28N 20°29' W 086°59'0 0.0
2019-Feb-20 17:58N 20°29' W 086°59'0 0.0
2019-Feb-20 17:30N 20°29' W 086°59'0 0.0
2019-Feb-20 17:00N 20°29' W 086°59'0 0.0
2019-Feb-20 16:30N 20°29' W 086°59'0 0.0
2019-Feb-20 16:00N 20°29' W 086°59'0 0.0
2019-Feb-20 15:29N 20°29' W 086°59'0 0.2
2019-Feb-20 15:01N 20°29' W 086°59'3 6.2
2019-Feb-20 14:31N 20°32' W 086°59'714.5
2019-Feb-20 14:00N 20°38' W 086°54'917.7
2019-Feb-20 13:28N 20°45' W 086°48'60717.5
2019-Feb-19 02:50N 28°42' W 093°41'2116.0
2019-Feb-19 01:33N 28°55' W 094°00'615.9
2019-Feb-19 01:09N 28°58' W 094°06'3415.1
2019-Feb-18 22:53N 29°18' W 094°38'512.2
2019-Feb-18 22:29N 29°21' W 094°43'4 9.3
2019-Feb-18 22:00N 29°19' W 094°48'0 0.5
2019-Feb-18 21:30N 29°19' W 094°48'0 0.0
2019-Feb-18 20:54N 29°19' W 094°48'0 0.0
2019-Feb-18 20:21N 29°19' W 094°48'0 0.0
2019-Feb-18 19:59N 29°19' W 094°48'0 0.0
2019-Feb-18 19:20N 29°19' W 094°48'0 0.0
2019-Feb-18 18:59N 29°19' W 094°48'0 0.0
2019-Feb-18 18:26N 29°19' W 094°48'0 0.0
2019-Feb-18 17:53N 29°19' W 094°48'0 0.0
2019-Feb-18 17:19N 29°19' W 094°48'0 0.0
2019-Feb-18 16:59N 29°19' W 094°48'0 0.0
2019-Feb-18 16:19N 29°19' W 094°48'0 0.0
2019-Feb-18 15:58N 29°19' W 094°48'0 0.0
2019-Feb-18 15:27N 29°19' W 094°48'0 0.0
2019-Feb-18 15:00N 29°19' W 094°48'0 0.0
2019-Feb-18 14:30N 29°19' W 094°48'0 0.0
2019-Feb-18 14:00N 29°19' W 094°48'0 0.9
2019-Feb-18 13:30N 29°19' W 094°47'1 1.8
2019-Feb-18 13:00N 29°20' W 094°47'510.8
2019-Feb-18 12:30N 29°20' W 094°41'913.1
2019-Feb-18 11:48N 29°15' W 094°32'516.0
2019-Feb-18 11:30N 29°12' W 094°27'815.7
2019-Feb-18 10:59N 29°08' W 094°19'2217.3
2019-Feb-18 09:44N 28°55' W 093°60'517.7
2019-Feb-18 09:26N 28°52' W 093°55'1518.8
2019-Feb-18 08:38N 28°43' W 093°40'519.4
2019-Feb-18 08:22N 28°40' W 093°36'1519.9
2019-Feb-18 07:37N 28°32' W 093°22'820.1
2019-Feb-18 07:13N 28°27' W 093°14'619.7
2019-Feb-18 06:54N 28°23' W 093°09'1119.7
2019-Feb-18 06:22N 28°17' W 092°59'36219.8
2019-Feb-17 12:07N 23°44' W 088°35'220.5
2019-Feb-17 12:00N 23°42' W 088°33'20418.4
2019-Feb-17 00:53N 20°40' W 086°53'616.6
2019-Feb-17 00:30N 20°35' W 086°56'612.6
2019-Feb-17 00:01N 20°29' W 086°59'1 1.7
2019-Feb-16 23:29N 20°29' W 086°59'0 0.0
2019-Feb-16 22:59N 20°29' W 086°59'0 0.0
2019-Feb-16 22:29N 20°29' W 086°59'0 0.0
2019-Feb-16 21:59N 20°29' W 086°59'0 0.0
2019-Feb-16 21:28N 20°29' W 086°59'0 0.0
2019-Feb-16 20:58N 20°29' W 086°59'0 0.0
2019-Feb-16 20:28N 20°29' W 086°59'0 0.0
2019-Feb-16 19:58N 20°29' W 086°59'0 0.0
2019-Feb-16 19:28N 20°29' W 086°59'0 0.0
2019-Feb-16 19:00N 20°29' W 086°59'0 0.0
2019-Feb-16 18:30N 20°29' W 086°59'0 0.0
2019-Feb-16 18:00N 20°29' W 086°59'0 0.0
2019-Feb-16 17:27N 20°29' W 086°59'0 0.0
2019-Feb-16 17:00N 20°29' W 086°59'0 0.0
2019-Feb-16 16:29N 20°29' W 086°59'0 0.0
2019-Feb-16 15:59N 20°29' W 086°59'0 0.0
2019-Feb-16 15:29N 20°29' W 086°59'0 0.0
2019-Feb-16 14:56N 20°29' W 086°59'0 0.1
2019-Feb-16 14:30N 20°29' W 086°59'4 7.1
2019-Feb-16 14:00N 20°32' W 086°59'611.1
2019-Feb-16 13:30N 20°37' W 086°55'713.8
2019-Feb-16 13:00N 20°42' W 086°51'18915.7
2019-Feb-16 01:00N 23°30' W 088°24'22018.3 140 / 121014.0 23.019.920.0
2019-Feb-15 13:00N 26°18' W 091°00'7224.1 200 / 201015.4 21.017.823.0
2019-Feb-15 10:00N 27°12' W 091°54'8117.2 110 / 251014.5 5.4 19.015.621.0
2019-Feb-15 05:16N 28°13' W 092°54'518.2
2019-Feb-15 05:00N 28°16' W 092°58'918.4
2019-Feb-15 04:30N 28°22' W 093°07'918.3
2019-Feb-15 04:00N 28°27' W 093°15'918.2
2019-Feb-15 03:31N 28°32' W 093°24'918.3
2019-Feb-15 03:00N 28°37' W 093°32'918.2
2019-Feb-15 02:30N 28°43' W 093°41'1018.0
2019-Feb-15 01:58N 28°48' W 093°50'1117.7
2019-Feb-15 01:22N 28°55' W 093°60'617.2
2019-Feb-15 01:01N 28°58' W 094°05'6374.8
2019-Feb-15 01:00N 28°54' W 094°00'1530.5 200 / 221013.0 19.013.819.0
2019-Feb-15 00:30N 29°03' W 094°13'917.0
2019-Feb-14 23:59N 29°08' W 094°22'917.1
2019-Feb-14 23:28N 29°12' W 094°31'714.4
2019-Feb-14 23:00N 29°16' W 094°37'5 9.9
2019-Feb-14 22:29N 29°20' W 094°41'511.2
2019-Feb-14 22:01N 29°19' W 094°47'1 2.4
2019-Feb-14 21:29N 29°19' W 094°48'0 0.0
2019-Feb-14 20:59N 29°19' W 094°48'0 0.0
2019-Feb-14 20:29N 29°19' W 094°48'0 0.0
2019-Feb-14 19:59N 29°19' W 094°48'0 0.0
2019-Feb-14 19:28N 29°19' W 094°48'0 0.0
2019-Feb-14 18:58N 29°19' W 094°48'0 0.0
2019-Feb-14 18:25N 29°19' W 094°48'0 0.0
2019-Feb-14 17:58N 29°19' W 094°48'0 0.0
2019-Feb-14 17:27N 29°19' W 094°48'0 0.0
2019-Feb-14 17:00N 29°19' W 094°48'0 0.0
2019-Feb-14 16:30N 29°19' W 094°48'0 0.0
2019-Feb-14 16:00N 29°19' W 094°48'0 0.0
2019-Feb-14 15:30N 29°19' W 094°48'0 0.0
2019-Feb-14 14:59N 29°19' W 094°48'0 0.0
2019-Feb-14 14:29N 29°19' W 094°48'0 0.0
2019-Feb-14 13:59N 29°19' W 094°48'0 0.0
2019-Feb-14 13:31N 29°19' W 094°48'1 2.1
2019-Feb-14 13:01N 29°19' W 094°47'4 8.6
2019-Feb-14 12:30N 29°21' W 094°42'612.9
2019-Feb-14 12:00N 29°18' W 094°36'5 9.9
2019-Feb-14 11:30N 29°14' W 094°31'5 9.8
2019-Feb-14 11:00N 29°11' W 094°27'611.1
2019-Feb-14 10:30N 29°06' W 094°25'612.0
2019-Feb-14 10:00N 29°00' W 094°25'612.5
2019-Feb-14 09:30N 28°54' W 094°25'714.0
2019-Feb-14 09:00N 28°47' W 094°24'184.7
2019-Feb-14 09:00N 28°48' W 094°24'918.9 050 / 201018.0 5.4 19.015.617.0
2019-Feb-14 08:30N 28°39' W 094°24'1016.2
2019-Feb-14 07:55N 28°29' W 094°24'37516.3
2019-Feb-13 09:00N 23°06' W 090°54'11716.7 050 / 301019.1 5.4 21.017.824.0
2019-Feb-13 02:00N 21°30' W 089°42'43 3.1 050 / 121015.9 22.018.920.0
2019-Feb-12 12:00N 21°48' W 089°00'5016.8 140 / 121015.0 25.020.424.0
2019-Feb-12 09:00N 21°54' W 088°06'   110 / 121014.8 5.4 25.018.825.0
Track history (hours):
 
Tides and Currents Weather Stations Pressure Air Temp Water Temp Dewpoint Dewpoint Depression Visibility Wind Speed Wind Dir Waves Ship Positions

Carnival Valor

Last reported at 2019-Feb-22 02:40 UTC. Time now 2019-Feb-22 23:31 UTC.
Position N 21°50' W 089°58'.

Type: Ship. MMSI: 354298000.

Date/timePositionNaut miles runAvg speedWind from/ knotsBaromVisibWave heightAir tempDewpointWater temp
2019-Feb-22 02:40N 21°50' W 089°58'316.6
2019-Feb-22 02:31N 21°48' W 089°56'816.5
2019-Feb-22 02:00N 21°41' W 089°51'816.2
2019-Feb-22 01:30N 21°35' W 089°46'714.7
2019-Feb-22 01:01N 21°29' W 089°42'611.8
2019-Feb-22 00:31N 21°23' W 089°41'2 4.6
2019-Feb-21 23:59N 21°21' W 089°41'0 0.0
2019-Feb-21 23:29N 21°21' W 089°41'0 0.0
2019-Feb-21 22:59N 21°21' W 089°41'0 0.0
2019-Feb-21 22:28N 21°21' W 089°41'0 0.0
2019-Feb-21 21:58N 21°21' W 089°41'0 0.0
2019-Feb-21 21:28N 21°21' W 089°41'0 0.0
2019-Feb-21 20:58N 21°21' W 089°41'0 0.0
2019-Feb-21 20:30N 21°21' W 089°41'0 0.0
2019-Feb-21 20:00N 21°21' W 089°41'0 0.0
2019-Feb-21 19:30N 21°21' W 089°41'0 0.0
2019-Feb-21 19:00N 21°21' W 089°41'0 0.0
2019-Feb-21 18:26N 21°21' W 089°41'0 0.0
2019-Feb-21 17:59N 21°21' W 089°41'0 0.0
2019-Feb-21 17:29N 21°21' W 089°41'0 0.0
2019-Feb-21 16:59N 21°21' W 089°41'0 0.0
2019-Feb-21 16:29N 21°21' W 089°41'0 0.0
2019-Feb-21 15:58N 21°21' W 089°41'0 0.3
2019-Feb-21 15:31N 21°21' W 089°41'4 7.1
2019-Feb-21 15:00N 21°24' W 089°41'611.1
2019-Feb-21 14:31N 21°29' W 089°39'917.1
2019-Feb-21 14:00N 21°35' W 089°33'918.5
2019-Feb-21 13:30N 21°41' W 089°25'1018.5
2019-Feb-21 12:57N 21°45' W 089°15'14813.0
2019-Feb-21 01:35N 20°43' W 086°51'220.2
2019-Feb-21 01:29N 20°41' W 086°52'919.0
2019-Feb-21 01:00N 20°34' W 086°58'510.3
2019-Feb-21 00:30N 20°29' W 086°59'0 0.5
2019-Feb-21 00:00N 20°29' W 086°59'0 0.0
2019-Feb-20 23:30N 20°29' W 086°59'0 0.0
2019-Feb-20 23:00N 20°29' W 086°59'0 0.0
2019-Feb-20 22:29N 20°29' W 086°59'0 0.0
2019-Feb-20 21:59N 20°29' W 086°59'0 0.0
2019-Feb-20 21:26N 20°29' W 086°59'0 0.0
2019-Feb-20 20:59N 20°29' W 086°59'0 0.0
2019-Feb-20 20:29N 20°29' W 086°59'0 0.0
2019-Feb-20 19:58N 20°29' W 086°59'0 0.0
2019-Feb-20 19:28N 20°29' W 086°59'0 0.0
2019-Feb-20 18:58N 20°29' W 086°59'0 0.0
2019-Feb-20 18:28N 20°29' W 086°59'0 0.0
2019-Feb-20 17:58N 20°29' W 086°59'0 0.0
2019-Feb-20 17:30N 20°29' W 086°59'0 0.0
2019-Feb-20 17:00N 20°29' W 086°59'0 0.0
2019-Feb-20 16:30N 20°29' W 086°59'0 0.0
2019-Feb-20 16:00N 20°29' W 086°59'0 0.0
2019-Feb-20 15:29N 20°29' W 086°59'0 0.2
2019-Feb-20 15:01N 20°29' W 086°59'3 6.2
2019-Feb-20 14:31N 20°32' W 086°59'714.5
2019-Feb-20 14:00N 20°38' W 086°54'917.7
2019-Feb-20 13:28N 20°45' W 086°48'60717.5
2019-Feb-19 02:50N 28°42' W 093°41'2116.0
2019-Feb-19 01:33N 28°55' W 094°00'615.9
2019-Feb-19 01:09N 28°58' W 094°06'3415.1
2019-Feb-18 22:53N 29°18' W 094°38'512.2
2019-Feb-18 22:29N 29°21' W 094°43'4 9.3
2019-Feb-18 22:00N 29°19' W 094°48'0 0.5
2019-Feb-18 21:30N 29°19' W 094°48'0 0.0
2019-Feb-18 20:54N 29°19' W 094°48'0 0.0
2019-Feb-18 20:21N 29°19' W 094°48'0 0.0
2019-Feb-18 19:59N 29°19' W 094°48'0 0.0
2019-Feb-18 19:20N 29°19' W 094°48'0 0.0
2019-Feb-18 18:59N 29°19' W 094°48'0 0.0
2019-Feb-18 18:26N 29°19' W 094°48'0 0.0
2019-Feb-18 17:53N 29°19' W 094°48'0 0.0
2019-Feb-18 17:19N 29°19' W 094°48'0 0.0
2019-Feb-18 16:59N 29°19' W 094°48'0 0.0
2019-Feb-18 16:19N 29°19' W 094°48'0 0.0
2019-Feb-18 15:58N 29°19' W 094°48'0 0.0
2019-Feb-18 15:27N 29°19' W 094°48'0 0.0
2019-Feb-18 15:00N 29°19' W 094°48'0 0.0
2019-Feb-18 14:30N 29°19' W 094°48'0 0.0
2019-Feb-18 14:00N 29°19' W 094°48'0 0.9
2019-Feb-18 13:30N 29°19' W 094°47'1 1.8
2019-Feb-18 13:00N 29°20' W 094°47'510.8
2019-Feb-18 12:30N 29°20' W 094°41'913.1
2019-Feb-18 11:48N 29°15' W 094°32'516.0
2019-Feb-18 11:30N 29°12' W 094°27'815.7
2019-Feb-18 10:59N 29°08' W 094°19'2217.3
2019-Feb-18 09:44N 28°55' W 093°60'517.7
2019-Feb-18 09:26N 28°52' W 093°55'1518.8
2019-Feb-18 08:38N 28°43' W 093°40'519.4
2019-Feb-18 08:22N 28°40' W 093°36'1519.9
2019-Feb-18 07:37N 28°32' W 093°22'820.1
2019-Feb-18 07:13N 28°27' W 093°14'619.7
2019-Feb-18 06:54N 28°23' W 093°09'1119.7
2019-Feb-18 06:22N 28°17' W 092°59'36219.8
2019-Feb-17 12:07N 23°44' W 088°35'220.5
2019-Feb-17 12:00N 23°42' W 088°33'20418.4
2019-Feb-17 00:53N 20°40' W 086°53'616.6
2019-Feb-17 00:30N 20°35' W 086°56'612.6
2019-Feb-17 00:01N 20°29' W 086°59'1 1.7
2019-Feb-16 23:29N 20°29' W 086°59'0 0.0
2019-Feb-16 22:59N 20°29' W 086°59'0 0.0
2019-Feb-16 22:29N 20°29' W 086°59'0 0.0
2019-Feb-16 21:59N 20°29' W 086°59'0 0.0
2019-Feb-16 21:28N 20°29' W 086°59'0 0.0
2019-Feb-16 20:58N 20°29' W 086°59'0 0.0
2019-Feb-16 20:28N 20°29' W 086°59'0 0.0
2019-Feb-16 19:58N 20°29' W 086°59'0 0.0
2019-Feb-16 19:28N 20°29' W 086°59'0 0.0
2019-Feb-16 19:00N 20°29' W 086°59'0 0.0
2019-Feb-16 18:30N 20°29' W 086°59'0 0.0
2019-Feb-16 18:00N 20°29' W 086°59'0 0.0
2019-Feb-16 17:27N 20°29' W 086°59'0 0.0
2019-Feb-16 17:00N 20°29' W 086°59'0 0.0
2019-Feb-16 16:29N 20°29' W 086°59'0 0.0
2019-Feb-16 15:59N 20°29' W 086°59'0 0.0
2019-Feb-16 15:29N 20°29' W 086°59'0 0.0
2019-Feb-16 14:56N 20°29' W 086°59'0 0.1
2019-Feb-16 14:30N 20°29' W 086°59'4 7.1
2019-Feb-16 14:00N 20°32' W 086°59'611.1
2019-Feb-16 13:30N 20°37' W 086°55'713.8
2019-Feb-16 13:00N 20°42' W 086°51'18915.7
2019-Feb-16 01:00N 23°30' W 088°24'22018.3 140 / 121014.0 23.019.920.0
2019-Feb-15 13:00N 26°18' W 091°00'7224.1 200 / 201015.4 21.017.823.0
2019-Feb-15 10:00N 27°12' W 091°54'8117.2 110 / 251014.5 5.4 19.015.621.0
2019-Feb-15 05:16N 28°13' W 092°54'518.2
2019-Feb-15 05:00N 28°16' W 092°58'918.4
2019-Feb-15 04:30N 28°22' W 093°07'918.3
2019-Feb-15 04:00N 28°27' W 093°15'918.2
2019-Feb-15 03:31N 28°32' W 093°24'918.3
2019-Feb-15 03:00N 28°37' W 093°32'918.2
2019-Feb-15 02:30N 28°43' W 093°41'1018.0
2019-Feb-15 01:58N 28°48' W 093°50'1117.7
2019-Feb-15 01:22N 28°55' W 093°60'617.2
2019-Feb-15 01:01N 28°58' W 094°05'6374.8
2019-Feb-15 01:00N 28°54' W 094°00'1530.5 200 / 221013.0 19.013.819.0
2019-Feb-15 00:30N 29°03' W 094°13'917.0
2019-Feb-14 23:59N 29°08' W 094°22'917.1
2019-Feb-14 23:28N 29°12' W 094°31'714.4
2019-Feb-14 23:00N 29°16' W 094°37'5 9.9
2019-Feb-14 22:29N 29°20' W 094°41'511.2
2019-Feb-14 22:01N 29°19' W 094°47'1 2.4
2019-Feb-14 21:29N 29°19' W 094°48'0 0.0
2019-Feb-14 20:59N 29°19' W 094°48'0 0.0
2019-Feb-14 20:29N 29°19' W 094°48'0 0.0
2019-Feb-14 19:59N 29°19' W 094°48'0 0.0
2019-Feb-14 19:28N 29°19' W 094°48'0 0.0
2019-Feb-14 18:58N 29°19' W 094°48'0 0.0
2019-Feb-14 18:25N 29°19' W 094°48'0 0.0
2019-Feb-14 17:58N 29°19' W 094°48'0 0.0
2019-Feb-14 17:27N 29°19' W 094°48'0 0.0
2019-Feb-14 17:00N 29°19' W 094°48'0 0.0
2019-Feb-14 16:30N 29°19' W 094°48'0 0.0
2019-Feb-14 16:00N 29°19' W 094°48'0 0.0
2019-Feb-14 15:30N 29°19' W 094°48'0 0.0
2019-Feb-14 14:59N 29°19' W 094°48'0 0.0
2019-Feb-14 14:29N 29°19' W 094°48'0 0.0
2019-Feb-14 13:59N 29°19' W 094°48'0 0.0
2019-Feb-14 13:31N 29°19' W 094°48'1 2.1
2019-Feb-14 13:01N 29°19' W 094°47'4 8.6
2019-Feb-14 12:30N 29°21' W 094°42'612.9
2019-Feb-14 12:00N 29°18' W 094°36'5 9.9
2019-Feb-14 11:30N 29°14' W 094°31'5 9.8
2019-Feb-14 11:00N 29°11' W 094°27'611.1
2019-Feb-14 10:30N 29°06' W 094°25'612.0
2019-Feb-14 10:00N 29°00' W 094°25'612.5
2019-Feb-14 09:30N 28°54' W 094°25'714.0
2019-Feb-14 09:00N 28°47' W 094°24'184.7
2019-Feb-14 09:00N 28°48' W 094°24'918.9 050 / 201018.0 5.4 19.015.617.0
2019-Feb-14 08:30N 28°39' W 094°24'1016.2
2019-Feb-14 07:55N 28°29' W 094°24'37516.3
2019-Feb-13 09:00N 23°06' W 090°54'11716.7 050 / 301019.1 5.4 21.017.824.0
2019-Feb-13 02:00N 21°30' W 089°42'43 3.1 050 / 121015.9 22.018.920.0
2019-Feb-12 12:00N 21°48' W 089°00'5016.8 140 / 121015.0 25.020.424.0
2019-Feb-12 09:00N 21°54' W 088°06'   110 / 121014.8 5.4 25.018.825.0

Dump ship's entire track history